createdAt,value
2018-07-07T00:00:25.250Z,19.18
2018-07-07T00:02:54.255Z,19.28
2018-07-07T00:05:23.241Z,19.21
2018-07-07T00:07:52.604Z,19.19
2018-07-07T00:10:22.416Z,19.25
2018-07-07T00:12:51.729Z,19.12
2018-07-07T00:15:21.645Z,18.94
2018-07-07T00:17:51.143Z,18.90
2018-07-07T00:20:20.872Z,18.76
2018-07-07T00:22:49.826Z,18.92
2018-07-07T00:25:19.991Z,18.85
2018-07-07T00:27:49.483Z,18.74
2018-07-07T00:30:19.000Z,18.66
2018-07-07T00:32:49.094Z,18.84
2018-07-07T00:35:18.111Z,18.50
2018-07-07T00:37:47.101Z,18.47
2018-07-07T00:40:18.028Z,18.54
2018-07-07T00:42:47.392Z,18.66
2018-07-07T00:45:27.956Z,18.51
2018-07-07T00:57:27.489Z,18.52
2018-07-07T00:59:56.424Z,18.61
2018-07-07T01:02:25.439Z,18.66
2018-07-07T01:04:55.214Z,18.60
2018-07-07T01:07:24.556Z,18.62
2018-07-07T01:09:53.486Z,18.40
2018-07-07T01:12:22.464Z,18.48
2018-07-07T01:14:51.426Z,18.51
2018-07-07T01:17:20.998Z,18.62
2018-07-07T01:19:50.083Z,18.57
2018-07-07T01:22:19.296Z,18.45
2018-07-07T01:24:48.327Z,18.33
2018-07-07T01:27:17.237Z,18.47
2018-07-07T01:29:46.165Z,18.31
2018-07-07T01:32:15.287Z,18.18
2018-07-07T01:34:44.347Z,18.24
2018-07-07T01:37:13.477Z,18.24
2018-07-07T01:39:42.551Z,18.27
2018-07-07T01:42:11.647Z,18.09
2018-07-07T01:44:41.758Z,18.35
2018-07-07T01:47:10.702Z,18.27
2018-07-07T01:49:40.435Z,18.27
2018-07-07T01:52:09.398Z,18.32
2018-07-07T01:54:38.669Z,18.31
2018-07-07T01:57:07.627Z,18.28
2018-07-07T01:59:36.870Z,18.37
2018-07-07T02:02:06.663Z,18.28
2018-07-07T02:04:36.324Z,18.24
2018-07-07T02:07:05.869Z,18.29
2018-07-07T02:09:34.786Z,18.35
2018-07-07T02:12:03.927Z,18.28
2018-07-07T02:14:33.197Z,18.30
2018-07-07T02:17:02.470Z,18.27
2018-07-07T02:19:31.396Z,18.26
2018-07-07T02:22:00.887Z,18.35
2018-07-07T02:24:30.153Z,18.32
2018-07-07T02:26:59.257Z,18.27
2018-07-07T02:29:28.363Z,18.27
2018-07-07T02:31:57.790Z,18.28
2018-07-07T02:34:27.412Z,18.26
2018-07-07T02:36:56.692Z,18.16
2018-07-07T02:39:25.667Z,18.13
2018-07-07T02:41:55.206Z,18.16
2018-07-07T02:44:24.156Z,18.28
2018-07-07T02:46:53.598Z,18.32
2018-07-07T02:49:22.557Z,18.21
2018-07-07T02:51:51.653Z,18.06
2018-07-07T02:54:20.847Z,18.04
2018-07-07T02:56:50.023Z,18.04
2018-07-07T02:59:19.041Z,18.05
2018-07-07T03:01:48.230Z,18.10
2018-07-07T03:04:17.356Z,18.11
2018-07-07T03:06:46.652Z,18.05
2018-07-07T03:09:16.975Z,18.07
2018-07-07T03:11:46.075Z,18.05
2018-07-07T03:14:15.122Z,17.92
2018-07-07T03:16:44.501Z,17.73
2018-07-07T03:19:13.515Z,17.67
2018-07-07T03:21:42.945Z,17.77
2018-07-07T03:24:12.348Z,17.86
2018-07-07T03:26:41.572Z,17.79
2018-07-07T03:29:10.619Z,17.66
2018-07-07T03:31:39.735Z,17.81
2018-07-07T03:34:08.869Z,17.67
2018-07-07T03:36:37.987Z,17.70
2018-07-07T03:39:08.203Z,17.62
2018-07-07T03:41:38.279Z,17.68
2018-07-07T03:44:07.563Z,17.74
2018-07-07T03:46:36.648Z,17.80
2018-07-07T03:49:06.347Z,17.81
2018-07-07T03:51:35.255Z,17.79
2018-07-07T03:54:04.315Z,17.69
2018-07-07T03:56:33.446Z,17.70
2018-07-07T03:59:02.570Z,17.71
2018-07-07T04:01:31.878Z,17.50
2018-07-07T04:04:01.616Z,17.47
2018-07-07T04:06:31.646Z,17.50
2018-07-07T04:09:00.809Z,17.49
2018-07-07T04:11:30.111Z,17.63
2018-07-07T04:13:59.503Z,17.66
2018-07-07T04:16:28.616Z,17.90
2018-07-07T04:18:57.732Z,17.38
2018-07-07T04:21:27.333Z,16.96
2018-07-07T04:23:56.677Z,16.88
2018-07-07T04:26:26.174Z,17.00
2018-07-07T04:28:55.518Z,17.34
2018-07-07T04:31:24.584Z,17.66
2018-07-07T04:33:53.899Z,17.78
2018-07-07T04:36:23.373Z,17.70
2018-07-07T04:38:52.331Z,17.83
2018-07-07T04:41:22.213Z,17.98
2018-07-07T04:43:51.400Z,18.00
2018-07-07T04:46:20.331Z,18.00
2018-07-07T04:48:49.384Z,18.02
2018-07-07T04:51:19.430Z,18.24
2018-07-07T04:53:48.602Z,18.34
2018-07-07T04:56:17.651Z,18.19
2018-07-07T04:58:46.607Z,18.36
2018-07-07T05:01:15.670Z,18.59
2018-07-07T05:03:44.987Z,18.82
2018-07-07T05:06:14.031Z,19.01
2018-07-07T05:08:43.015Z,18.42
2018-07-07T05:11:12.608Z,18.23
2018-07-07T05:13:41.890Z,18.17
2018-07-07T05:16:11.760Z,18.69
2018-07-07T05:18:41.074Z,18.91
2018-07-07T05:21:10.179Z,18.76
2018-07-07T05:23:39.251Z,19.05
2018-07-07T05:26:08.603Z,19.25
2018-07-07T05:28:37.943Z,19.45
2018-07-07T05:31:07.190Z,19.29
2018-07-07T05:33:36.499Z,19.33
2018-07-07T05:36:06.183Z,19.38
2018-07-07T05:38:35.506Z,19.43
2018-07-07T05:41:04.703Z,19.53
2018-07-07T05:43:34.030Z,19.68
2018-07-07T05:46:03.305Z,19.36
2018-07-07T05:48:32.399Z,19.80
2018-07-07T05:51:01.458Z,19.79
2018-07-07T05:53:30.627Z,19.87
2018-07-07T05:55:59.659Z,19.93
2018-07-07T05:58:28.685Z,19.92
2018-07-07T06:00:57.675Z,19.93
2018-07-07T06:03:27.260Z,20.00
2018-07-07T06:05:56.667Z,20.01
2018-07-07T06:08:25.708Z,20.32
2018-07-07T06:10:55.676Z,20.03
2018-07-07T06:13:24.870Z,20.15
2018-07-07T06:15:53.927Z,20.30
2018-07-07T06:18:23.303Z,20.45
2018-07-07T06:20:53.188Z,20.42
2018-07-07T06:23:22.151Z,20.27
2018-07-07T06:25:51.769Z,20.14
2018-07-07T06:28:21.503Z,20.23
2018-07-07T06:30:50.451Z,20.62
2018-07-07T06:33:19.605Z,20.57
2018-07-07T06:35:48.675Z,20.73
2018-07-07T06:38:18.150Z,20.30
2018-07-07T06:40:47.131Z,20.26
2018-07-07T06:43:16.362Z,20.37
2018-07-07T06:45:45.467Z,20.44
2018-07-07T06:48:14.547Z,21.02
2018-07-07T06:50:43.502Z,21.16
2018-07-07T06:53:12.739Z,21.28
2018-07-07T06:55:42.256Z,21.38
2018-07-07T06:58:11.437Z,21.59
2018-07-07T07:00:40.900Z,21.46
2018-07-07T07:03:09.841Z,21.32
2018-07-07T07:05:38.855Z,21.56
2018-07-07T07:08:08.123Z,21.48
2018-07-07T07:10:37.315Z,21.82
2018-07-07T07:13:06.329Z,22.01
2018-07-07T07:15:36.274Z,22.58
2018-07-07T07:18:05.551Z,22.82
2018-07-07T07:20:34.662Z,23.24
2018-07-07T07:23:03.925Z,23.64
2018-07-07T07:25:33.126Z,23.53
2018-07-07T07:28:02.318Z,24.64
2018-07-07T07:30:32.275Z,25.22
2018-07-07T07:33:01.891Z,25.41
2018-07-07T07:35:30.950Z,24.82
2018-07-07T07:37:59.940Z,25.51
2018-07-07T07:40:30.119Z,24.93
2018-07-07T07:42:59.395Z,24.50
2018-07-07T07:45:28.507Z,25.04
2018-07-07T07:47:58.563Z,25.27
2018-07-07T07:50:27.794Z,25.12
2018-07-07T07:52:56.898Z,24.73
2018-07-07T07:55:26.406Z,25.40
2018-07-07T07:57:55.946Z,25.18
2018-07-07T08:00:25.198Z,24.79
2018-07-07T08:02:54.500Z,24.37
2018-07-07T08:05:23.886Z,24.81
2018-07-07T08:07:53.110Z,25.42
2018-07-07T08:10:22.546Z,25.50
2018-07-07T08:12:51.728Z,24.98
2018-07-07T08:15:21.515Z,25.86
2018-07-07T08:17:50.671Z,26.51
2018-07-07T08:20:20.379Z,25.81
2018-07-07T08:22:49.827Z,25.72
2018-07-07T08:25:19.148Z,26.11
2018-07-07T08:27:48.129Z,25.38
2018-07-07T08:30:17.150Z,26.14
2018-07-07T08:32:46.990Z,26.68
2018-07-07T08:35:16.347Z,27.67
2018-07-07T08:37:45.831Z,27.73
2018-07-07T08:40:15.619Z,28.36
2018-07-07T08:42:45.572Z,28.56
2018-07-07T08:45:14.828Z,28.65
2018-07-07T08:47:44.500Z,28.90
2018-07-07T08:50:13.648Z,29.17
2018-07-07T08:52:43.793Z,30.80
2018-07-07T08:55:12.845Z,29.87
2018-07-07T08:57:42.777Z,28.19
2018-07-07T09:00:12.001Z,29.03
2018-07-07T09:02:40.954Z,29.46
2018-07-07T09:05:10.407Z,28.76
2018-07-07T09:07:40.390Z,28.11
2018-07-07T09:10:09.979Z,28.36
2018-07-07T09:12:39.392Z,28.04
2018-07-07T09:15:08.452Z,28.19
2018-07-07T09:17:38.184Z,28.58
2018-07-07T09:20:08.172Z,28.92
2018-07-07T09:22:38.127Z,28.90
2018-07-07T09:25:07.109Z,28.97
2018-07-07T09:27:36.470Z,28.66
2018-07-07T09:30:10.831Z,29.59
2018-07-07T09:32:39.788Z,30.50
2018-07-07T09:35:09.042Z,29.11
2018-07-07T09:37:38.134Z,30.15
2018-07-07T09:40:07.371Z,30.67
2018-07-07T09:42:36.675Z,30.86
2018-07-07T09:45:06.719Z,31.80
2018-07-07T09:47:35.887Z,29.61
2018-07-07T09:50:06.791Z,28.99
2018-07-07T09:52:35.860Z,29.12
2018-07-07T09:55:05.002Z,29.28
2018-07-07T09:57:34.071Z,31.17
2018-07-07T10:00:12.477Z,32.54
2018-07-07T10:02:41.684Z,32.43
2018-07-07T10:05:10.755Z,33.15
2018-07-07T10:07:40.353Z,32.78
2018-07-07T10:10:09.975Z,33.10
2018-07-07T10:12:39.328Z,33.99
2018-07-07T10:15:08.584Z,34.42
2018-07-07T10:17:37.710Z,32.63
2018-07-07T10:20:07.739Z,32.63
2018-07-07T10:22:37.220Z,33.01
2018-07-07T10:25:06.219Z,29.86
2018-07-07T10:27:37.014Z,31.53
2018-07-07T10:30:08.578Z,32.64
2018-07-07T10:32:37.690Z,34.22
2018-07-07T10:35:07.288Z,33.63
2018-07-07T10:37:36.501Z,33.98
2018-07-07T10:40:07.273Z,33.23
2018-07-07T10:42:36.681Z,31.86
2018-07-07T10:45:06.378Z,32.46
2018-07-07T10:47:35.351Z,33.96
2018-07-07T10:50:07.609Z,33.50
2018-07-07T10:52:36.911Z,33.78
2018-07-07T10:55:06.403Z,33.77
2018-07-07T10:57:35.470Z,32.79
2018-07-07T11:00:08.495Z,33.33
2018-07-07T11:02:37.813Z,33.30
2018-07-07T11:05:07.177Z,32.86
2018-07-07T11:07:36.359Z,32.36
2018-07-07T11:10:09.119Z,31.39
2018-07-07T11:12:38.243Z,30.91
2018-07-07T11:15:07.360Z,30.01
2018-07-07T11:17:36.429Z,29.73
2018-07-07T11:20:09.447Z,29.76
2018-07-07T11:22:38.598Z,30.32
2018-07-07T11:25:08.024Z,29.69
2018-07-07T11:27:37.114Z,28.98
2018-07-07T11:30:07.245Z,28.82
2018-07-07T11:32:36.491Z,28.87
2018-07-07T11:35:06.067Z,28.72
2018-07-07T11:37:35.346Z,28.69
2018-07-07T11:40:08.565Z,28.48
2018-07-07T11:42:38.056Z,28.45
2018-07-07T11:45:07.263Z,28.72
2018-07-07T11:47:36.359Z,28.44
2018-07-07T11:50:07.218Z,28.59
2018-07-07T11:52:36.348Z,28.21
2018-07-07T11:55:05.882Z,28.47
2018-07-07T11:57:35.486Z,28.63
2018-07-07T12:00:09.167Z,28.58
2018-07-07T12:02:38.373Z,28.34
2018-07-07T12:05:07.476Z,28.06
2018-07-07T12:07:36.594Z,28.30
2018-07-07T12:10:09.078Z,28.60
2018-07-07T12:12:38.293Z,28.34
2018-07-07T12:15:07.790Z,28.32
2018-07-07T12:17:36.782Z,28.24
2018-07-07T12:20:09.179Z,28.45
2018-07-07T12:22:38.426Z,28.54
2018-07-07T12:25:08.341Z,28.22
2018-07-07T12:27:37.293Z,28.19
2018-07-07T12:30:08.016Z,28.27
2018-07-07T12:32:37.308Z,28.08
2018-07-07T12:35:06.780Z,28.43
2018-07-07T12:37:35.805Z,28.30
2018-07-07T12:40:08.515Z,28.51
2018-07-07T12:42:37.481Z,28.39
2018-07-07T12:45:06.577Z,28.44
2018-07-07T12:47:35.556Z,28.74
2018-07-07T12:50:08.470Z,28.92
2018-07-07T12:52:37.539Z,28.68
2018-07-07T12:55:06.741Z,28.45
2018-07-07T12:57:36.133Z,28.35
2018-07-07T13:00:08.628Z,28.49
2018-07-07T13:02:37.671Z,28.31
2018-07-07T13:05:07.047Z,28.65
2018-07-07T13:07:36.018Z,28.64
2018-07-07T13:10:08.333Z,28.51
2018-07-07T13:12:37.463Z,28.55
2018-07-07T13:15:07.258Z,28.55
2018-07-07T13:17:36.384Z,28.73
2018-07-07T13:20:08.576Z,28.94
2018-07-07T13:22:37.568Z,28.58
2018-07-07T13:25:06.569Z,28.64
2018-07-07T13:27:35.537Z,28.48
2018-07-07T13:30:08.599Z,28.38
2018-07-07T13:32:37.623Z,28.55
2018-07-07T13:35:06.611Z,28.45
2018-07-07T13:37:35.605Z,28.39
2018-07-07T13:40:07.343Z,28.74
2018-07-07T13:42:36.445Z,28.52
2018-07-07T13:45:05.711Z,28.99
2018-07-07T13:47:34.811Z,28.72
2018-07-07T13:50:07.149Z,28.46
2018-07-07T13:52:36.287Z,28.45
2018-07-07T13:55:05.914Z,28.61
2018-07-07T13:57:34.927Z,28.53
2018-07-07T14:00:07.049Z,28.44
2018-07-07T14:02:36.069Z,28.53
2018-07-07T14:05:05.813Z,28.61
2018-07-07T14:07:34.794Z,28.39
2018-07-07T14:10:07.591Z,28.41
2018-07-07T14:12:36.622Z,28.60
2018-07-07T14:15:05.762Z,28.49
2018-07-07T14:17:35.680Z,28.80
2018-07-07T14:20:09.309Z,28.39
2018-07-07T14:22:38.431Z,28.57
2018-07-07T14:25:07.951Z,28.63
2018-07-07T14:27:36.983Z,28.38
2018-07-07T14:30:08.205Z,28.25
2018-07-07T14:32:37.221Z,28.28
2018-07-07T14:35:06.305Z,28.07
2018-07-07T14:37:35.329Z,28.41
2018-07-07T14:40:08.387Z,28.50
2018-07-07T14:42:49.025Z,28.53
2018-07-07T14:45:29.997Z,28.22
2018-07-07T14:48:00.171Z,28.48
2018-07-07T14:50:29.771Z,28.36
2018-07-07T14:52:59.040Z,28.25
2018-07-07T14:55:30.307Z,28.56
2018-07-07T14:57:59.302Z,28.49
2018-07-07T15:00:29.746Z,28.68
2018-07-07T15:02:59.215Z,28.45
2018-07-07T15:05:28.133Z,28.75
2018-07-07T15:07:57.095Z,28.48
2018-07-07T15:10:26.232Z,28.37
2018-07-07T15:12:55.370Z,28.39
2018-07-07T15:15:24.459Z,28.32
2018-07-07T15:17:53.975Z,28.37
2018-07-07T15:20:23.863Z,28.56
2018-07-07T15:22:53.496Z,28.45
2018-07-07T15:25:22.583Z,28.45
2018-07-07T15:27:51.563Z,28.30
2018-07-07T15:30:20.554Z,28.37
2018-07-07T15:32:49.760Z,28.28
2018-07-07T15:35:19.681Z,28.55
2018-07-07T15:37:55.745Z,28.41
2018-07-07T15:40:24.763Z,28.64
2018-07-07T15:42:53.730Z,28.59
2018-07-07T15:45:22.991Z,28.45
2018-07-07T15:47:51.974Z,28.40
2018-07-07T15:50:21.100Z,28.24
2018-07-07T15:52:50.103Z,28.23
2018-07-07T15:55:19.073Z,28.03
2018-07-07T15:57:48.048Z,27.98
2018-07-07T16:00:17.937Z,28.04
2018-07-07T16:02:46.929Z,28.24
2018-07-07T16:05:22.598Z,28.08
2018-07-07T16:07:51.776Z,27.76
2018-07-07T16:10:21.442Z,27.64
2018-07-07T16:12:51.365Z,27.67
2018-07-07T16:15:20.445Z,27.62
2018-07-07T16:17:49.510Z,27.76
2018-07-07T16:20:18.711Z,27.67
2018-07-07T16:22:47.716Z,27.65
2018-07-07T16:25:16.721Z,27.80
2018-07-07T16:27:45.735Z,27.75
2018-07-07T16:30:14.851Z,27.58
2018-07-07T16:32:43.884Z,27.43
2018-07-07T16:35:13.007Z,27.54
2018-07-07T16:37:42.074Z,27.72
2018-07-07T16:40:11.279Z,27.46
2018-07-07T16:42:41.051Z,27.58
2018-07-07T16:45:10.352Z,27.54
2018-07-07T16:47:39.506Z,27.34
2018-07-07T16:50:09.580Z,27.43
2018-07-07T16:52:38.829Z,27.02
2018-07-07T16:55:08.778Z,26.91
2018-07-07T16:57:37.801Z,26.95
2018-07-07T17:00:07.550Z,27.02
2018-07-07T17:02:36.870Z,26.92
2018-07-07T17:05:06.989Z,26.78
2018-07-07T17:07:36.508Z,26.63
2018-07-07T17:10:09.279Z,26.71
2018-07-07T17:12:38.577Z,26.67
2018-07-07T17:15:07.747Z,26.56
2018-07-07T17:17:36.831Z,26.66
2018-07-07T17:20:12.873Z,26.71
2018-07-07T17:22:41.946Z,26.85
2018-07-07T17:25:11.311Z,27.11
2018-07-07T17:27:40.423Z,27.10
2018-07-07T17:30:09.593Z,27.02
2018-07-07T17:32:39.831Z,26.93
2018-07-07T17:35:09.240Z,26.78
2018-07-07T17:37:38.274Z,26.71
2018-07-07T17:40:07.903Z,26.65
2018-07-07T17:42:36.989Z,26.51
2018-07-07T17:45:06.986Z,26.53
2018-07-07T17:47:37.011Z,26.44
2018-07-07T17:50:07.999Z,26.32
2018-07-07T17:52:37.290Z,26.35
2018-07-07T17:55:07.650Z,26.23
2018-07-07T17:57:37.718Z,26.11
2018-07-07T18:00:08.127Z,26.19
2018-07-07T18:02:37.577Z,26.10
2018-07-07T18:05:06.672Z,26.12
2018-07-07T18:07:35.914Z,26.04
2018-07-07T18:10:07.980Z,26.09
2018-07-07T18:12:37.090Z,26.01
2018-07-07T18:15:06.801Z,26.18
2018-07-07T18:17:36.054Z,26.09
2018-07-07T18:20:08.516Z,26.02
2018-07-07T18:22:37.763Z,26.01
2018-07-07T18:25:07.415Z,25.90
2018-07-07T18:27:36.582Z,25.88
2018-07-07T18:30:07.758Z,25.74
2018-07-07T18:32:37.435Z,25.68
2018-07-07T18:35:06.837Z,25.65
2018-07-07T18:37:36.129Z,25.62
2018-07-07T18:40:07.826Z,25.59
2018-07-07T18:42:36.896Z,25.56
2018-07-07T18:45:06.209Z,25.54
2018-07-07T18:47:35.561Z,25.56
2018-07-07T18:50:09.260Z,25.53
2018-07-07T18:52:38.650Z,25.54
2018-07-07T18:55:07.784Z,25.33
2018-07-07T18:57:36.745Z,25.44
2018-07-07T19:00:09.463Z,25.47
2018-07-07T19:02:38.455Z,25.37
2018-07-07T19:05:07.771Z,25.14
2018-07-07T19:07:38.003Z,25.15
2018-07-07T19:10:07.199Z,24.96
2018-07-07T19:12:36.510Z,25.05
2018-07-07T19:15:11.167Z,24.86
2018-07-07T19:17:40.246Z,24.89
2018-07-07T19:20:13.790Z,24.83
2018-07-07T19:22:48.248Z,24.73
2018-07-07T19:25:28.916Z,24.65
2018-07-07T19:27:57.914Z,24.71
2018-07-07T19:30:27.437Z,24.65
2018-07-07T19:33:01.563Z,24.50
2018-07-07T19:35:35.816Z,24.65
2018-07-07T19:38:04.871Z,24.51
2018-07-07T19:40:34.025Z,24.50
2018-07-07T19:43:03.215Z,24.39
2018-07-07T19:45:32.570Z,24.33
2018-07-07T19:48:01.544Z,24.29
2018-07-07T19:50:30.818Z,24.25
2018-07-07T19:53:00.082Z,24.19
2018-07-07T19:55:29.103Z,24.18
2018-07-07T19:57:58.014Z,24.10
2018-07-07T20:00:27.201Z,24.06
2018-07-07T20:02:56.678Z,23.92
2018-07-07T20:05:25.695Z,23.81
2018-07-07T20:07:54.692Z,23.80
2018-07-07T20:10:24.012Z,23.81
2018-07-07T20:12:52.971Z,23.70
2018-07-07T20:15:31.954Z,23.62
2018-07-07T20:18:05.437Z,23.53
2018-07-07T20:20:39.979Z,23.47
2018-07-07T20:23:10.563Z,23.39
2018-07-07T20:25:40.103Z,23.46
2018-07-07T20:28:14.398Z,23.40
2018-07-07T20:30:43.447Z,23.42
2018-07-07T20:33:12.669Z,23.28
2018-07-07T20:35:41.647Z,23.33
2018-07-07T20:38:10.686Z,23.26
2018-07-07T20:40:39.842Z,23.26
2018-07-07T20:43:09.175Z,23.29
2018-07-07T20:45:38.637Z,23.31
2018-07-07T20:48:07.628Z,23.26
2018-07-07T20:50:37.346Z,23.19
2018-07-07T20:53:06.401Z,23.03
2018-07-07T20:55:35.612Z,23.00
2018-07-07T20:58:05.466Z,22.93
2018-07-07T21:00:34.784Z,22.83
2018-07-07T21:03:04.323Z,22.86
2018-07-07T21:05:33.253Z,22.78
2018-07-07T21:08:02.258Z,22.69
2018-07-07T21:10:32.615Z,22.73
2018-07-07T21:13:01.683Z,22.60
2018-07-07T21:15:30.742Z,22.58
2018-07-07T21:18:02.789Z,22.58
2018-07-07T21:20:32.436Z,22.51
2018-07-07T21:23:01.418Z,22.55
2018-07-07T21:25:30.424Z,22.46
2018-07-07T21:27:59.547Z,22.48
2018-07-07T21:30:28.557Z,22.41
2018-07-07T21:32:59.138Z,22.31
2018-07-07T21:35:28.336Z,22.40
2018-07-07T21:37:58.083Z,22.28
2018-07-07T21:40:27.168Z,22.25
2018-07-07T21:42:56.521Z,22.15
2018-07-07T21:45:25.909Z,22.21
2018-07-07T21:47:55.425Z,22.14
2018-07-07T21:50:24.827Z,22.22
2018-07-07T21:52:53.903Z,22.21
2018-07-07T21:55:22.907Z,22.31
2018-07-07T21:57:57.126Z,22.19
2018-07-07T22:00:31.933Z,22.23
2018-07-07T22:03:06.581Z,22.15
2018-07-07T22:05:41.108Z,22.15
2018-07-07T22:08:15.634Z,21.94
2018-07-07T22:10:44.841Z,21.79
2018-07-07T22:13:14.822Z,21.79
2018-07-07T22:15:43.814Z,21.82
2018-07-07T22:18:13.292Z,21.80
2018-07-07T22:20:48.958Z,21.70
2018-07-07T22:23:18.052Z,21.58
2018-07-07T22:25:53.708Z,21.60
2018-07-07T22:28:23.683Z,21.52
2018-07-07T22:30:52.758Z,21.54
2018-07-07T22:33:25.434Z,21.60
2018-07-07T22:35:59.715Z,21.55
2018-07-07T22:39:04.022Z,21.42
2018-07-07T22:41:44.123Z,21.44
2018-07-07T22:44:13.808Z,21.50
2018-07-07T22:46:42.803Z,21.53
2018-07-07T22:49:11.970Z,21.41
2018-07-07T22:51:41.416Z,21.32
2018-07-07T22:54:10.542Z,21.21
2018-07-07T22:56:40.219Z,21.08
2018-07-07T22:59:09.259Z,21.01
2018-07-07T23:01:38.725Z,21.00
2018-07-07T23:04:07.738Z,20.97
2018-07-07T23:06:44.108Z,21.02
2018-07-07T23:09:14.458Z,20.97
2018-07-07T23:11:43.699Z,20.95
2018-07-07T23:14:12.791Z,20.90
2018-07-07T23:16:42.148Z,20.89
2018-07-07T23:19:12.159Z,20.74
2018-07-07T23:21:41.241Z,20.80
2018-07-07T23:24:10.271Z,20.57
2018-07-07T23:26:39.272Z,20.58
2018-07-07T23:29:09.040Z,20.53
2018-07-07T23:31:38.083Z,20.43
2018-07-07T23:34:07.171Z,20.38
2018-07-07T23:36:36.252Z,20.29
2018-07-07T23:39:05.831Z,20.23
2018-07-07T23:47:34.664Z,20.01
2018-07-07T23:50:03.778Z,19.93
2018-07-07T23:52:33.078Z,19.87
2018-07-07T23:55:02.641Z,19.76
2018-07-07T23:57:31.771Z,19.69
